sensor_id;sensor_type;location;lat;lon;timestamp;temperature;humidity
31455;DHT22;18084;53.028;8.834;2023-04-24T00:01:26;11.10;99.90
31455;DHT22;18084;53.028;8.834;2023-04-24T00:03:55;11.10;99.90
31455;DHT22;18084;53.028;8.834;2023-04-24T00:06:21;11.10;99.90
31455;DHT22;18084;53.028;8.834;2023-04-24T00:08:48;11.10;99.90
31455;DHT22;18084;53.028;8.834;2023-04-24T00:11:14;11.10;99.90
31455;DHT22;18084;53.028;8.834;2023-04-24T00:13:39;11.00;99.90
31455;DHT22;18084;53.028;8.834;2023-04-24T00:16:05;11.00;99.90
31455;DHT22;18084;53.028;8.834;2023-04-24T00:18:31;11.30;99.90
31455;DHT22;18084;53.028;8.834;2023-04-24T00:20:56;11.20;99.90
31455;DHT22;18084;53.028;8.834;2023-04-24T00:23:22;11.30;99.90
31455;DHT22;18084;53.028;8.834;2023-04-24T00:25:47;11.20;99.90
31455;DHT22;18084;53.028;8.834;2023-04-24T00:28:13;11.10;99.90
31455;DHT22;18084;53.028;8.834;2023-04-24T00:30:38;11.20;99.90
31455;DHT22;18084;53.028;8.834;2023-04-24T00:33:04;11.20;99.90
31455;DHT22;18084;53.028;8.834;2023-04-24T00:35:29;11.20;99.90
31455;DHT22;18084;53.028;8.834;2023-04-24T00:37:55;11.20;99.90
31455;DHT22;18084;53.028;8.834;2023-04-24T00:40:20;11.20;99.90
31455;DHT22;18084;53.028;8.834;2023-04-24T00:42:46;11.30;99.90
31455;DHT22;18084;53.028;8.834;2023-04-24T00:45:11;11.30;99.90
31455;DHT22;18084;53.028;8.834;2023-04-24T00:47:37;11.40;99.90
31455;DHT22;18084;53.028;8.834;2023-04-24T00:50:05;11.50;99.90
31455;DHT22;18084;53.028;8.834;2023-04-24T00:52:31;11.50;99.90
31455;DHT22;18084;53.028;8.834;2023-04-24T00:54:58;11.40;99.90
31455;DHT22;18084;53.028;8.834;2023-04-24T00:57:23;11.50;99.90
31455;DHT22;18084;53.028;8.834;2023-04-24T00:59:51;11.20;99.90
31455;DHT22;18084;53.028;8.834;2023-04-24T01:02:17;11.30;99.90
31455;DHT22;18084;53.028;8.834;2023-04-24T01:04:45;11.30;99.90
31455;DHT22;18084;53.028;8.834;2023-04-24T01:07:10;11.10;99.90
31455;DHT22;18084;53.028;8.834;2023-04-24T01:09:39;11.20;99.90
31455;DHT22;18084;53.028;8.834;2023-04-24T01:12:06;11.20;99.90
31455;DHT22;18084;53.028;8.834;2023-04-24T01:14:32;11.80;99.90
31455;DHT22;18084;53.028;8.834;2023-04-24T01:16:58;11.10;99.90
31455;DHT22;18084;53.028;8.834;2023-04-24T01:19:24;11.20;99.90
31455;DHT22;18084;53.028;8.834;2023-04-24T01:21:52;11.10;99.90
31455;DHT22;18084;53.028;8.834;2023-04-24T01:24:19;11.20;99.90
31455;DHT22;18084;53.028;8.834;2023-04-24T01:26:45;11.20;99.90
31455;DHT22;18084;53.028;8.834;2023-04-24T01:29:11;11.10;99.90
31455;DHT22;18084;53.028;8.834;2023-04-24T01:31:37;11.20;99.90
31455;DHT22;18084;53.028;8.834;2023-04-24T01:34:04;11.20;99.90
31455;DHT22;18084;53.028;8.834;2023-04-24T01:36:29;11.30;99.90
31455;DHT22;18084;53.028;8.834;2023-04-24T01:38:56;11.30;99.90
31455;DHT22;18084;53.028;8.834;2023-04-24T01:41:22;11.30;99.90
31455;DHT22;18084;53.028;8.834;2023-04-24T01:43:48;11.30;99.90
31455;DHT22;18084;53.028;8.834;2023-04-24T01:46:14;11.30;99.90
31455;DHT22;18084;53.028;8.834;2023-04-24T01:48:40;11.20;99.90
31455;DHT22;18084;53.028;8.834;2023-04-24T01:51:06;11.30;99.90
31455;DHT22;18084;53.028;8.834;2023-04-24T01:53:32;11.20;99.90
31455;DHT22;18084;53.028;8.834;2023-04-24T01:55:57;11.20;99.90
31455;DHT22;18084;53.028;8.834;2023-04-24T01:58:23;11.20;99.90
31455;DHT22;18084;53.028;8.834;2023-04-24T02:00:48;11.10;99.90
31455;DHT22;18084;53.028;8.834;2023-04-24T02:03:14;11.20;99.90
31455;DHT22;18084;53.028;8.834;2023-04-24T02:05:40;11.10;99.90
31455;DHT22;18084;53.028;8.834;2023-04-24T02:08:05;11.10;99.90
31455;DHT22;18084;53.028;8.834;2023-04-24T02:10:30;11.10;99.90
31455;DHT22;18084;53.028;8.834;2023-04-24T02:12:56;11.10;99.90
31455;DHT22;18084;53.028;8.834;2023-04-24T02:15:21;11.80;99.90
31455;DHT22;18084;53.028;8.834;2023-04-24T02:17:47;11.20;99.90
31455;DHT22;18084;53.028;8.834;2023-04-24T02:20:12;11.20;99.90
31455;DHT22;18084;53.028;8.834;2023-04-24T02:22:38;11.20;99.90
31455;DHT22;18084;53.028;8.834;2023-04-24T02:25:04;11.20;99.90
31455;DHT22;18084;53.028;8.834;2023-04-24T02:27:30;11.10;99.90
31455;DHT22;18084;53.028;8.834;2023-04-24T02:29:55;11.10;99.90
31455;DHT22;18084;53.028;8.834;2023-04-24T02:32:21;11.10;99.90
31455;DHT22;18084;53.028;8.834;2023-04-24T02:34:46;11.00;99.90
31455;DHT22;18084;53.028;8.834;2023-04-24T02:37:12;11.00;99.90
31455;DHT22;18084;53.028;8.834;2023-04-24T02:39:37;11.00;99.90
31455;DHT22;18084;53.028;8.834;2023-04-24T02:42:03;11.40;99.90
31455;DHT22;18084;53.028;8.834;2023-04-24T02:44:29;11.00;99.90
31455;DHT22;18084;53.028;8.834;2023-04-24T02:46:54;10.90;99.90
31455;DHT22;18084;53.028;8.834;2023-04-24T02:49:19;11.00;99.90
31455;DHT22;18084;53.028;8.834;2023-04-24T02:51:45;11.00;99.90
31455;DHT22;18084;53.028;8.834;2023-04-24T02:54:11;11.00;99.90
31455;DHT22;18084;53.028;8.834;2023-04-24T02:56:36;10.90;99.90
31455;DHT22;18084;53.028;8.834;2023-04-24T02:59:02;11.00;99.90
31455;DHT22;18084;53.028;8.834;2023-04-24T03:01:28;11.00;99.90
31455;DHT22;18084;53.028;8.834;2023-04-24T03:03:53;11.00;99.90
31455;DHT22;18084;53.028;8.834;2023-04-24T03:06:19;10.90;99.90
31455;DHT22;18084;53.028;8.834;2023-04-24T03:08:46;11.30;99.90
31455;DHT22;18084;53.028;8.834;2023-04-24T03:11:11;10.90;99.90
31455;DHT22;18084;53.028;8.834;2023-04-24T03:13:37;10.90;99.90
31455;DHT22;18084;53.028;8.834;2023-04-24T03:16:02;10.90;99.90
31455;DHT22;18084;53.028;8.834;2023-04-24T03:18:28;10.90;99.90
31455;DHT22;18084;53.028;8.834;2023-04-24T03:20:53;10.90;99.90
31455;DHT22;18084;53.028;8.834;2023-04-24T03:23:18;10.80;99.90
31455;DHT22;18084;53.028;8.834;2023-04-24T03:25:44;11.30;99.90
31455;DHT22;18084;53.028;8.834;2023-04-24T03:28:10;10.90;99.90
31455;DHT22;18084;53.028;8.834;2023-04-24T03:30:36;10.80;99.90
31455;DHT22;18084;53.028;8.834;2023-04-24T03:33:01;10.90;99.90
31455;DHT22;18084;53.028;8.834;2023-04-24T03:35:26;10.90;99.90
31455;DHT22;18084;53.028;8.834;2023-04-24T03:37:52;11.10;99.90
31455;DHT22;18084;53.028;8.834;2023-04-24T03:40:17;10.90;99.90
31455;DHT22;18084;53.028;8.834;2023-04-24T03:42:45;10.90;99.90
31455;DHT22;18084;53.028;8.834;2023-04-24T03:45:10;10.90;99.90
31455;DHT22;18084;53.028;8.834;2023-04-24T03:47:35;10.90;99.90
31455;DHT22;18084;53.028;8.834;2023-04-24T03:50:01;10.90;99.90
31455;DHT22;18084;53.028;8.834;2023-04-24T03:52:27;10.90;99.90
31455;DHT22;18084;53.028;8.834;2023-04-24T03:54:52;12.80;99.90
31455;DHT22;18084;53.028;8.834;2023-04-24T03:57:18;10.90;99.90
31455;DHT22;18084;53.028;8.834;2023-04-24T03:59:43;10.90;99.90
31455;DHT22;18084;53.028;8.834;2023-04-24T04:02:09;10.80;99.90
31455;DHT22;18084;53.028;8.834;2023-04-24T04:04:34;10.80;99.90
31455;DHT22;18084;53.028;8.834;2023-04-24T04:07:00;10.90;99.90
31455;DHT22;18084;53.028;8.834;2023-04-24T04:09:28;10.90;99.90
31455;DHT22;18084;53.028;8.834;2023-04-24T04:11:53;10.90;99.90
31455;DHT22;18084;53.028;8.834;2023-04-24T04:14:19;10.90;99.90
31455;DHT22;18084;53.028;8.834;2023-04-24T04:16:44;10.90;99.90
31455;DHT22;18084;53.028;8.834;2023-04-24T04:19:10;10.90;99.90
31455;DHT22;18084;53.028;8.834;2023-04-24T04:21:36;10.80;99.90
31455;DHT22;18084;53.028;8.834;2023-04-24T04:24:01;10.90;99.90
31455;DHT22;18084;53.028;8.834;2023-04-24T04:26:26;10.80;99.90
31455;DHT22;18084;53.028;8.834;2023-04-24T04:28:52;10.80;99.90
31455;DHT22;18084;53.028;8.834;2023-04-24T04:31:19;10.70;99.90
31455;DHT22;18084;53.028;8.834;2023-04-24T04:33:45;10.80;99.90
31455;DHT22;18084;53.028;8.834;2023-04-24T04:36:10;10.90;99.90
31455;DHT22;18084;53.028;8.834;2023-04-24T04:38:36;10.80;99.90
31455;DHT22;18084;53.028;8.834;2023-04-24T04:41:02;10.70;99.90
31455;DHT22;18084;53.028;8.834;2023-04-24T04:43:28;10.90;99.90
31455;DHT22;18084;53.028;8.834;2023-04-24T04:45:53;10.80;99.90
31455;DHT22;18084;53.028;8.834;2023-04-24T04:48:20;10.80;99.90
31455;DHT22;18084;53.028;8.834;2023-04-24T04:50:45;10.80;99.90
31455;DHT22;18084;53.028;8.834;2023-04-24T04:53:11;10.80;99.90
31455;DHT22;18084;53.028;8.834;2023-04-24T04:55:36;10.70;99.90
31455;DHT22;18084;53.028;8.834;2023-04-24T04:58:02;10.80;99.90
31455;DHT22;18084;53.028;8.834;2023-04-24T05:00:27;10.80;99.90
31455;DHT22;18084;53.028;8.834;2023-04-24T05:02:54;10.80;99.90
31455;DHT22;18084;53.028;8.834;2023-04-24T05:05:19;10.80;99.90
31455;DHT22;18084;53.028;8.834;2023-04-24T05:07:45;10.80;99.90
31455;DHT22;18084;53.028;8.834;2023-04-24T05:10:10;10.90;99.90
31455;DHT22;18084;53.028;8.834;2023-04-24T05:12:36;10.80;99.90
31455;DHT22;18084;53.028;8.834;2023-04-24T05:15:02;12.30;99.90
31455;DHT22;18084;53.028;8.834;2023-04-24T05:17:28;10.90;99.90
31455;DHT22;18084;53.028;8.834;2023-04-24T05:19:53;10.80;99.90
31455;DHT22;18084;53.028;8.834;2023-04-24T05:22:19;12.90;99.90
31455;DHT22;18084;53.028;8.834;2023-04-24T05:24:46;10.90;99.90
31455;DHT22;18084;53.028;8.834;2023-04-24T05:27:12;10.90;99.90
31455;DHT22;18084;53.028;8.834;2023-04-24T05:29:37;10.90;99.90
31455;DHT22;18084;53.028;8.834;2023-04-24T05:32:03;10.90;99.90
31455;DHT22;18084;53.028;8.834;2023-04-24T05:34:28;11.00;99.90
31455;DHT22;18084;53.028;8.834;2023-04-24T05:36:54;11.00;99.90
31455;DHT22;18084;53.028;8.834;2023-04-24T05:39:20;11.00;99.90
31455;DHT22;18084;53.028;8.834;2023-04-24T05:41:45;11.00;99.90
31455;DHT22;18084;53.028;8.834;2023-04-24T05:44:11;12.90;99.90
31455;DHT22;18084;53.028;8.834;2023-04-24T05:46:36;11.10;99.90
31455;DHT22;18084;53.028;8.834;2023-04-24T05:49:02;11.10;99.90
31455;DHT22;18084;53.028;8.834;2023-04-24T05:51:28;11.20;99.90
31455;DHT22;18084;53.028;8.834;2023-04-24T05:53:53;11.30;99.90
31455;DHT22;18084;53.028;8.834;2023-04-24T05:56:19;11.40;99.90
31455;DHT22;18084;53.028;8.834;2023-04-24T05:58:45;11.50;99.90
31455;DHT22;18084;53.028;8.834;2023-04-24T06:01:11;11.60;99.90
31455;DHT22;18084;53.028;8.834;2023-04-24T06:03:38;11.80;99.90
31455;DHT22;18084;53.028;8.834;2023-04-24T06:06:06;11.70;99.90
31455;DHT22;18084;53.028;8.834;2023-04-24T06:08:31;11.70;99.90
31455;DHT22;18084;53.028;8.834;2023-04-24T06:10:58;11.60;99.90
31455;DHT22;18084;53.028;8.834;2023-04-24T06:13:23;11.60;99.90
31455;DHT22;18084;53.028;8.834;2023-04-24T06:15:49;11.50;99.90
31455;DHT22;18084;53.028;8.834;2023-04-24T06:18:14;11.40;99.90
31455;DHT22;18084;53.028;8.834;2023-04-24T06:20:40;11.30;99.90
31455;DHT22;18084;53.028;8.834;2023-04-24T06:23:05;11.30;99.90
31455;DHT22;18084;53.028;8.834;2023-04-24T06:25:31;12.00;99.90
31455;DHT22;18084;53.028;8.834;2023-04-24T06:27:57;11.40;99.90
31455;DHT22;18084;53.028;8.834;2023-04-24T06:30:23;11.40;99.90
31455;DHT22;18084;53.028;8.834;2023-04-24T06:32:48;11.40;99.90
31455;DHT22;18084;53.028;8.834;2023-04-24T06:35:14;11.40;99.90
31455;DHT22;18084;53.028;8.834;2023-04-24T06:37:39;12.40;99.90
31455;DHT22;18084;53.028;8.834;2023-04-24T06:40:06;11.60;99.90
31455;DHT22;18084;53.028;8.834;2023-04-24T06:42:32;11.70;99.90
31455;DHT22;18084;53.028;8.834;2023-04-24T06:44:57;11.60;99.90
31455;DHT22;18084;53.028;8.834;2023-04-24T06:47:23;11.70;99.90
31455;DHT22;18084;53.028;8.834;2023-04-24T06:49:48;11.60;99.90
31455;DHT22;18084;53.028;8.834;2023-04-24T06:52:16;11.70;99.90
31455;DHT22;18084;53.028;8.834;2023-04-24T06:54:42;11.70;99.90
31455;DHT22;18084;53.028;8.834;2023-04-24T06:57:08;11.60;99.90
31455;DHT22;18084;53.028;8.834;2023-04-24T06:59:33;11.60;99.90
31455;DHT22;18084;53.028;8.834;2023-04-24T07:01:59;11.60;99.90
31455;DHT22;18084;53.028;8.834;2023-04-24T07:04:24;11.60;99.90
31455;DHT22;18084;53.028;8.834;2023-04-24T07:06:50;11.50;99.90
31455;DHT22;18084;53.028;8.834;2023-04-24T07:09:16;11.50;99.90
31455;DHT22;18084;53.028;8.834;2023-04-24T07:11:44;11.70;99.90
31455;DHT22;18084;53.028;8.834;2023-04-24T07:14:10;12.20;99.90
31455;DHT22;18084;53.028;8.834;2023-04-24T07:16:35;12.20;99.20
31455;DHT22;18084;53.028;8.834;2023-04-24T07:19:01;12.30;99.70
31455;DHT22;18084;53.028;8.834;2023-04-24T07:21:26;12.70;99.90
31455;DHT22;18084;53.028;8.834;2023-04-24T07:23:52;12.50;98.30
31455;DHT22;18084;53.028;8.834;2023-04-24T07:26:18;12.30;96.90
31455;DHT22;18084;53.028;8.834;2023-04-24T07:28:44;12.10;96.90
31455;DHT22;18084;53.028;8.834;2023-04-24T07:31:10;12.20;97.70
31455;DHT22;18084;53.028;8.834;2023-04-24T07:33:36;12.20;97.30
31455;DHT22;18084;53.028;8.834;2023-04-24T07:36:01;12.00;97.40
31455;DHT22;18084;53.028;8.834;2023-04-24T07:38:29;11.90;97.80
31455;DHT22;18084;53.028;8.834;2023-04-24T07:40:55;11.90;99.70
31455;DHT22;18084;53.028;8.834;2023-04-24T07:43:21;11.90;98.40
31455;DHT22;18084;53.028;8.834;2023-04-24T07:45:47;11.90;99.90
31455;DHT22;18084;53.028;8.834;2023-04-24T07:48:12;12.00;98.10
31455;DHT22;18084;53.028;8.834;2023-04-24T07:50:41;13.90;94.30
31455;DHT22;18084;53.028;8.834;2023-04-24T07:53:07;11.90;91.80
31455;DHT22;18084;53.028;8.834;2023-04-24T07:55:32;11.90;95.60
31455;DHT22;18084;53.028;8.834;2023-04-24T07:57:58;11.90;96.20
31455;DHT22;18084;53.028;8.834;2023-04-24T08:00:23;11.90;98.00
31455;DHT22;18084;53.028;8.834;2023-04-24T08:02:49;11.90;98.60
31455;DHT22;18084;53.028;8.834;2023-04-24T08:05:15;11.90;95.60
31455;DHT22;18084;53.028;8.834;2023-04-24T08:07:40;11.90;97.70
31455;DHT22;18084;53.028;8.834;2023-04-24T08:10:09;11.80;95.60
31455;DHT22;18084;53.028;8.834;2023-04-24T08:12:35;11.80;97.90
31455;DHT22;18084;53.028;8.834;2023-04-24T08:15:02;11.80;96.90
31455;DHT22;18084;53.028;8.834;2023-04-24T08:17:28;11.80;98.70
31455;DHT22;18084;53.028;8.834;2023-04-24T08:19:54;11.80;94.70
31455;DHT22;18084;53.028;8.834;2023-04-24T08:22:29;12.00;94.80
31455;DHT22;18084;53.028;8.834;2023-04-24T08:24:55;12.30;92.50
31455;DHT22;18084;53.028;8.834;2023-04-24T08:27:22;12.00;92.60
31455;DHT22;18084;53.028;8.834;2023-04-24T08:29:48;12.00;91.40
31455;DHT22;18084;53.028;8.834;2023-04-24T08:32:13;11.80;94.00
31455;DHT22;18084;53.028;8.834;2023-04-24T08:34:39;12.00;93.20
31455;DHT22;18084;53.028;8.834;2023-04-24T08:37:04;12.00;94.70
31455;DHT22;18084;53.028;8.834;2023-04-24T08:39:30;12.20;95.70
31455;DHT22;18084;53.028;8.834;2023-04-24T08:41:56;12.50;89.20
31455;DHT22;18084;53.028;8.834;2023-04-24T08:44:21;12.80;88.20
31455;DHT22;18084;53.028;8.834;2023-04-24T08:46:50;12.80;86.70
31455;DHT22;18084;53.028;8.834;2023-04-24T08:49:17;13.30;26.80
31455;DHT22;18084;53.028;8.834;2023-04-24T08:51:45;13.00;9.80
31455;DHT22;18084;53.028;8.834;2023-04-24T08:54:13;13.10;1.00
31455;DHT22;18084;53.028;8.834;2023-04-24T08:56:40;13.30;4.40
31455;DHT22;18084;53.028;8.834;2023-04-24T08:59:08;13.30;1.00
31455;DHT22;18084;53.028;8.834;2023-04-24T09:01:34;13.40;1.00
31455;DHT22;18084;53.028;8.834;2023-04-24T09:04:03;13.40;1.00
31455;DHT22;18084;53.028;8.834;2023-04-24T09:06:30;13.40;1.00
31455;DHT22;18084;53.028;8.834;2023-04-24T09:09:00;13.20;1.00
31455;DHT22;18084;53.028;8.834;2023-04-24T09:11:26;13.80;1.00
31455;DHT22;18084;53.028;8.834;2023-04-24T09:13:53;12.80;1.00
31455;DHT22;18084;53.028;8.834;2023-04-24T09:16:20;12.50;1.00
31455;DHT22;18084;53.028;8.834;2023-04-24T09:18:46;12.20;10.20
31455;DHT22;18084;53.028;8.834;2023-04-24T09:21:11;12.10;17.20
31455;DHT22;18084;53.028;8.834;2023-04-24T09:23:37;12.20;30.60
31455;DHT22;18084;53.028;8.834;2023-04-24T09:26:04;12.30;13.90
31455;DHT22;18084;53.028;8.834;2023-04-24T09:28:36;12.30;7.50
31455;DHT22;18084;53.028;8.834;2023-04-24T09:31:11;12.30;1.00
31455;DHT22;18084;53.028;8.834;2023-04-24T09:33:37;12.10;2.20
31455;DHT22;18084;53.028;8.834;2023-04-24T09:36:02;12.00;8.40
31455;DHT22;18084;53.028;8.834;2023-04-24T09:38:38;12.00;19.00
31455;DHT22;18084;53.028;8.834;2023-04-24T09:41:06;12.10;13.10
31455;DHT22;18084;53.028;8.834;2023-04-24T09:43:32;12.10;18.00
31455;DHT22;18084;53.028;8.834;2023-04-24T09:45:58;12.10;13.00
31455;DHT22;18084;53.028;8.834;2023-04-24T09:48:32;12.10;27.60
31455;DHT22;18084;53.028;8.834;2023-04-24T09:50:59;12.30;19.20
31455;DHT22;18084;53.028;8.834;2023-04-24T09:53:27;12.40;6.90
31455;DHT22;18084;53.028;8.834;2023-04-24T09:55:53;12.50;2.60
31455;DHT22;18084;53.028;8.834;2023-04-24T09:58:25;12.50;1.00
31455;DHT22;18084;53.028;8.834;2023-04-24T10:00:54;12.40;1.00
31455;DHT22;18084;53.028;8.834;2023-04-24T10:03:20;13.80;1.00
31455;DHT22;18084;53.028;8.834;2023-04-24T10:05:46;12.30;1.00
31455;DHT22;18084;53.028;8.834;2023-04-24T10:08:12;12.40;1.00
31455;DHT22;18084;53.028;8.834;2023-04-24T10:10:43;12.50;1.00
31455;DHT22;18084;53.028;8.834;2023-04-24T10:13:10;12.40;1.00
31455;DHT22;18084;53.028;8.834;2023-04-24T10:15:36;12.50;1.00
31455;DHT22;18084;53.028;8.834;2023-04-24T10:18:04;12.50;1.00
31455;DHT22;18084;53.028;8.834;2023-04-24T10:20:32;12.40;1.00
31455;DHT22;18084;53.028;8.834;2023-04-24T10:22:59;12.20;1.00
31455;DHT22;18084;53.028;8.834;2023-04-24T10:25:33;12.10;7.20
31455;DHT22;18084;53.028;8.834;2023-04-24T10:27:59;11.90;19.30
31455;DHT22;18084;53.028;8.834;2023-04-24T10:30:27;11.70;25.80
31455;DHT22;18084;53.028;8.834;2023-04-24T10:32:53;11.60;27.80
31455;DHT22;18084;53.028;8.834;2023-04-24T10:35:19;11.50;41.90
31455;DHT22;18084;53.028;8.834;2023-04-24T10:37:54;11.50;52.20
31455;DHT22;18084;53.028;8.834;2023-04-24T10:40:30;11.50;48.80
31455;DHT22;18084;53.028;8.834;2023-04-24T10:42:56;11.70;47.60
31455;DHT22;18084;53.028;8.834;2023-04-24T10:45:22;11.90;45.60
31455;DHT22;18084;53.028;8.834;2023-04-24T10:48:08;12.00;37.40
31455;DHT22;18084;53.028;8.834;2023-04-24T10:50:51;12.00;20.20
31455;DHT22;18084;53.028;8.834;2023-04-24T10:53:22;12.20;21.30
31455;DHT22;18084;53.028;8.834;2023-04-24T10:56:04;12.20;35.40
31455;DHT22;18084;53.028;8.834;2023-04-24T10:58:56;12.20;12.00
31455;DHT22;18084;53.028;8.834;2023-04-24T11:01:29;12.20;29.70
31455;DHT22;18084;53.028;8.834;2023-04-24T11:04:03;13.00;21.30
31455;DHT22;18084;53.028;8.834;2023-04-24T11:06:36;12.10;19.30
31455;DHT22;18084;53.028;8.834;2023-04-24T11:09:09;11.90;23.20
31455;DHT22;18084;53.028;8.834;2023-04-24T11:11:36;12.10;27.70
31455;DHT22;18084;53.028;8.834;2023-04-24T11:14:04;12.10;22.10
31455;DHT22;18084;53.028;8.834;2023-04-24T11:21:47;12.70;1.00
31455;DHT22;18084;53.028;8.834;2023-04-24T11:24:26;12.80;1.00
31455;DHT22;18084;53.028;8.834;2023-04-24T11:26:58;12.60;1.00
31455;DHT22;18084;53.028;8.834;2023-04-24T11:34:58;12.10;4.10
31455;DHT22;18084;53.028;8.834;2023-04-24T11:37:26;12.00;12.80
31455;DHT22;18084;53.028;8.834;2023-04-24T11:39:53;12.60;20.80
31455;DHT22;18084;53.028;8.834;2023-04-24T11:42:21;11.80;7.40
31455;DHT22;18084;53.028;8.834;2023-04-24T11:44:47;11.80;19.20
31455;DHT22;18084;53.028;8.834;2023-04-24T11:47:14;11.80;15.60
31455;DHT22;18084;53.028;8.834;2023-04-24T11:49:39;11.70;15.80
31455;DHT22;18084;53.028;8.834;2023-04-24T11:52:05;11.70;26.40
31455;DHT22;18084;53.028;8.834;2023-04-24T11:54:31;11.60;26.30
31455;DHT22;18084;53.028;8.834;2023-04-24T11:56:57;11.70;32.80
31455;DHT22;18084;53.028;8.834;2023-04-24T11:59:23;11.70;26.10
31455;DHT22;18084;53.028;8.834;2023-04-24T12:01:49;11.70;39.80
31455;DHT22;18084;53.028;8.834;2023-04-24T12:04:16;11.60;39.60
31455;DHT22;18084;53.028;8.834;2023-04-24T12:07:04;11.40;57.30
31455;DHT22;18084;53.028;8.834;2023-04-24T12:09:50;11.60;72.50
31455;DHT22;18084;53.028;8.834;2023-04-24T12:12:17;11.70;70.90
31455;DHT22;18084;53.028;8.834;2023-04-24T12:15:06;11.70;68.10
31455;DHT22;18084;53.028;8.834;2023-04-24T12:17:34;11.70;77.10
31455;DHT22;18084;53.028;8.834;2023-04-24T12:20:05;11.70;88.80
31455;DHT22;18084;53.028;8.834;2023-04-24T12:22:50;11.70;92.70
31455;DHT22;18084;53.028;8.834;2023-04-24T12:25:17;11.50;85.30
31455;DHT22;18084;53.028;8.834;2023-04-24T12:27:44;11.40;92.40
31455;DHT22;18084;53.028;8.834;2023-04-24T12:30:13;11.60;99.90
31455;DHT22;18084;53.028;8.834;2023-04-24T12:32:48;11.10;99.90
31455;DHT22;18084;53.028;8.834;2023-04-24T12:35:22;11.10;99.90
31455;DHT22;18084;53.028;8.834;2023-04-24T12:37:48;11.00;99.90
31455;DHT22;18084;53.028;8.834;2023-04-24T12:40:15;10.90;99.90
31455;DHT22;18084;53.028;8.834;2023-04-24T12:42:44;11.00;99.90
31455;DHT22;18084;53.028;8.834;2023-04-24T12:45:10;12.00;99.90
31455;DHT22;18084;53.028;8.834;2023-04-24T12:47:38;10.90;99.90
31455;DHT22;18084;53.028;8.834;2023-04-24T12:50:05;10.80;99.90
31455;DHT22;18084;53.028;8.834;2023-04-24T12:52:31;10.80;99.90
31455;DHT22;18084;53.028;8.834;2023-04-24T12:54:57;10.70;99.90
31455;DHT22;18084;53.028;8.834;2023-04-24T12:57:24;10.70;99.90
31455;DHT22;18084;53.028;8.834;2023-04-24T12:59:54;10.30;99.90
31455;DHT22;18084;53.028;8.834;2023-04-24T13:02:20;10.50;99.90
31455;DHT22;18084;53.028;8.834;2023-04-24T13:04:47;10.30;99.90
31455;DHT22;18084;53.028;8.834;2023-04-24T13:07:13;10.20;99.90
31455;DHT22;18084;53.028;8.834;2023-04-24T13:09:40;10.00;99.90
31455;DHT22;18084;53.028;8.834;2023-04-24T13:12:06;12.00;99.90
31455;DHT22;18084;53.028;8.834;2023-04-24T13:14:32;9.60;99.90
31455;DHT22;18084;53.028;8.834;2023-04-24T13:17:13;9.60;99.90
31455;DHT22;18084;53.028;8.834;2023-04-24T13:20:21;9.60;99.90
31455;DHT22;18084;53.028;8.834;2023-04-24T13:22:46;9.50;99.90
31455;DHT22;18084;53.028;8.834;2023-04-24T13:25:12;11.10;99.90
31455;DHT22;18084;53.028;8.834;2023-04-24T13:27:40;9.30;99.90
31455;DHT22;18084;53.028;8.834;2023-04-24T13:30:06;9.30;99.90
31455;DHT22;18084;53.028;8.834;2023-04-24T13:32:32;9.30;99.90
31455;DHT22;18084;53.028;8.834;2023-04-24T13:34:58;9.50;99.90
31455;DHT22;18084;53.028;8.834;2023-04-24T13:37:24;9.10;99.90
31455;DHT22;18084;53.028;8.834;2023-04-24T13:39:49;9.00;99.90
31455;DHT22;18084;53.028;8.834;2023-04-24T13:42:16;9.10;99.90
31455;DHT22;18084;53.028;8.834;2023-04-24T13:44:41;9.10;99.90
31455;DHT22;18084;53.028;8.834;2023-04-24T13:47:07;9.00;99.90
31455;DHT22;18084;53.028;8.834;2023-04-24T13:49:32;10.30;99.90
31455;DHT22;18084;53.028;8.834;2023-04-24T13:51:58;8.90;99.90
31455;DHT22;18084;53.028;8.834;2023-04-24T13:54:23;8.80;99.90
31455;DHT22;18084;53.028;8.834;2023-04-24T13:56:51;8.80;99.90
31455;DHT22;18084;53.028;8.834;2023-04-24T13:59:20;8.80;99.90
31455;DHT22;18084;53.028;8.834;2023-04-24T14:01:46;8.70;99.90
31455;DHT22;18084;53.028;8.834;2023-04-24T14:04:16;8.70;99.90
31455;DHT22;18084;53.028;8.834;2023-04-24T14:06:44;8.70;99.90
31455;DHT22;18084;53.028;8.834;2023-04-24T14:09:14;8.70;99.90
31455;DHT22;18084;53.028;8.834;2023-04-24T14:11:48;8.70;99.90
31455;DHT22;18084;53.028;8.834;2023-04-24T14:14:36;8.60;99.90
31455;DHT22;18084;53.028;8.834;2023-04-24T14:17:02;10.00;99.90
31455;DHT22;18084;53.028;8.834;2023-04-24T14:19:27;9.50;99.90
31455;DHT22;18084;53.028;8.834;2023-04-24T14:21:53;8.40;99.90
31455;DHT22;18084;53.028;8.834;2023-04-24T14:24:20;8.40;99.90
31455;DHT22;18084;53.028;8.834;2023-04-24T14:26:46;9.10;99.90
31455;DHT22;18084;53.028;8.834;2023-04-24T14:29:11;8.50;99.90
31455;DHT22;18084;53.028;8.834;2023-04-24T14:31:37;8.40;99.90
31455;DHT22;18084;53.028;8.834;2023-04-24T14:34:04;8.40;99.90
31455;DHT22;18084;53.028;8.834;2023-04-24T14:36:29;8.50;99.90
31455;DHT22;18084;53.028;8.834;2023-04-24T14:38:56;8.50;99.90
31455;DHT22;18084;53.028;8.834;2023-04-24T14:41:22;8.50;99.90
31455;DHT22;18084;53.028;8.834;2023-04-24T14:43:47;10.60;99.90
31455;DHT22;18084;53.028;8.834;2023-04-24T14:46:13;8.40;99.90
31455;DHT22;18084;53.028;8.834;2023-04-24T14:48:38;9.50;99.90
31455;DHT22;18084;53.028;8.834;2023-04-24T14:51:04;8.40;99.90
31455;DHT22;18084;53.028;8.834;2023-04-24T14:53:31;8.40;99.90
31455;DHT22;18084;53.028;8.834;2023-04-24T14:55:56;8.30;99.90
31455;DHT22;18084;53.028;8.834;2023-04-24T14:58:22;8.30;99.90
31455;DHT22;18084;53.028;8.834;2023-04-24T15:00:47;8.40;99.90
31455;DHT22;18084;53.028;8.834;2023-04-24T15:03:18;8.40;99.90
31455;DHT22;18084;53.028;8.834;2023-04-24T15:05:43;8.40;99.90
31455;DHT22;18084;53.028;8.834;2023-04-24T15:08:09;9.90;99.90
31455;DHT22;18084;53.028;8.834;2023-04-24T15:10:34;8.40;99.90
31455;DHT22;18084;53.028;8.834;2023-04-24T15:13:00;8.90;99.90
31455;DHT22;18084;53.028;8.834;2023-04-24T15:15:25;8.40;99.90
31455;DHT22;18084;53.028;8.834;2023-04-24T15:17:51;8.50;99.90
31455;DHT22;18084;53.028;8.834;2023-04-24T15:20:16;8.40;99.90
31455;DHT22;18084;53.028;8.834;2023-04-24T15:22:43;9.60;99.90
31455;DHT22;18084;53.028;8.834;2023-04-24T15:25:08;8.40;99.90
31455;DHT22;18084;53.028;8.834;2023-04-24T15:27:44;8.50;99.90
31455;DHT22;18084;53.028;8.834;2023-04-24T15:30:11;8.20;99.90
31455;DHT22;18084;53.028;8.834;2023-04-24T15:32:38;8.60;99.90
31455;DHT22;18084;53.028;8.834;2023-04-24T15:35:04;8.50;99.90
31455;DHT22;18084;53.028;8.834;2023-04-24T15:37:29;8.70;99.90
31455;DHT22;18084;53.028;8.834;2023-04-24T15:39:55;10.10;99.90
31455;DHT22;18084;53.028;8.834;2023-04-24T15:42:20;8.70;99.90
31455;DHT22;18084;53.028;8.834;2023-04-24T15:44:46;10.00;99.90